This is the latest recevied weather packets stored in our database for station/object W4TJP. If no packets are shown the sender has not sent any weather packets the latest 10 day(s).
| Time | Temp. | Humidity | Pressure | Rain* | Wind** | Luminosity | Snow |
|---|---|---|---|---|---|---|---|
| 1777758594 | 13.33° C | 59% | 1014.8 hPa | 0 mm | - | 53 W/m² | - |
| 1777758291 | 13.33° C | 60% | 1014.9 hPa | 0 mm | - | 122 W/m² | - |
| 1777757988 | 13.33° C | 58% | 1015.1 hPa | 0 mm | - | 102 W/m² | - |
| 1777757684 | 12.78° C | 58% | 1015.2 hPa | 0 mm | - | 356 W/m² | - |
| 1777757383 | 13.89° C | 56% | 1014.9 hPa | 0 mm | - | 69 W/m² | - |
| 1777757082 | 13.89° C | 56% | 1015.2 hPa | 0 mm | - | 367 W/m² | - |
| 1777756779 | 13.89° C | 55% | 1014.9 hPa | 0 mm | - | 476 W/m² | - |
| 1777756474 | 13.89° C | 54% | 1015.2 hPa | 0 mm | - | 130 W/m² | - |
| 1777756172 | 13.89° C | 54% | 1014.9 hPa | 0 mm | - | 156 W/m² | - |
| 1777755868 | 13.89° C | 54% | 1014.8 hPa | 0 mm | - | 71 W/m² | - |
| 1777755566 | 14.44° C | 52% | 1014.8 hPa | 0 mm | - | 85 W/m² | - |
| 1777755262 | 15.56° C | 48% | 1014.8 hPa | 0 mm | - | 100 W/m² | - |
| 1777754959 | 16.67° C | 45% | 1014.6 hPa | 0 mm | - | 243 W/m² | - |
| 1777754656 | 16.11° C | 47% | 1014.7 hPa | 0 mm | - | 527 W/m² | - |
| 1777754354 | 15.56° C | 51% | 1014.9 hPa | 0 mm | - | 528 W/m² | - |
| 1777754051 | 15° C | 54% | 1015.1 hPa | 0 mm | - | 478 W/m² | - |
| 1777753746 | 15° C | 54% | 1015.2 hPa | 0 mm | - | 276 W/m² | - |
| 1777753444 | 13.89° C | 52% | 1015.2 hPa | 0 mm | - | 254 W/m² | - |
| 1777753142 | 13.89° C | 52% | 1015.1 hPa | 0 mm | - | 109 W/m² | - |
| 1777752837 | 15° C | 51% | 1015.1 hPa | 0 mm | - | 166 W/m² | - |
| 1777752534 | 13.89° C | 52% | 1015.4 hPa | 0 mm | - | 309 W/m² | - |
| 1777752230 | 14.44° C | 52% | 1015.2 hPa | 0 mm | - | 93 W/m² | - |
| 1777751928 | 15.56° C | 48% | 1015.1 hPa | 0 mm | - | 81 W/m² | - |
| 1777751624 | 16.67° C | 45% | 1015.3 hPa | 0 mm | - | 144 W/m² | - |
| 1777751321 | 17.22° C | 46% | 1015.3 hPa | 0 mm | - | 724 W/m² | - |
* Rain latest hour (hover to see other rain measurements)
** Current wind speed in m/s (hover to see current wind gust speed)